New Millport, PA (16861)

1:41 AM EST on January 18, 2017 (GMT -0500)
Twinoaks | | Change Station
Active Advisory: Dense Fog Advisory

Elev 1493 ft 40.99 °N, 78.53 °W | Updated 50 seconds ago

Overcast
Overcast
36.5 °F
Feels Like 36 °F
N
2.0
Wind Variable Wind from SSW

Today
High -- | Low -- °F
--% Chance of Precip.
Yesterday
High -- | Low -- °F
Precip. -- in
Pressure 29.86 in
Visibility 0.2 miles
Clouds Mostly Cloudy 1800 ft
Overcast 4900 ft
Windchill 36 °F
Dew Point 35 °F
Humidity 96%
Rainfall 0.00 in
Snow Depth Not available.
7:34 AM 5:14 PM
Waning Gibbous, 66% visible
SPECI KFIG 180635Z AUTO 00000KT 1/4SM FG BKN018 OVC049 03/03 A2986 RMK AO2 T00280028
Pressure 29.86 in
Visibility 0.2 miles
Clouds Mostly Cloudy 1800 ft
Overcast 4900 ft
Windchill 36 °F
Dew Point 35 °F
Humidity 96%
Rainfall 0.00 in
Snow Depth Not available.
7:34 AM 5:14 PM
Waning Gibbous, 66% visible
SPECI KFIG 180635Z AUTO 00000KT 1/4SM FG BKN018 OVC049 03/03 A2986 RMK AO2 T00280028

Get Your Daily Forecast Email!

Thanks for signing up!

Be on the lookout for a verification email in your inbox.

You'll start receiving the daily forecast at 8 AM.

×

10-Day Weather Forecast

Almanac

Astronomy

Jan. 18, 2017 Rise Set
Actual Time
Civil Twilight
Nautical Twilight
Astronomical Twilight
Moon
Length of Visible Light
Length of Day
Tomorrow will be .
, % of the Moon is Illuminated

Today's Extremes

State Highs State Lows

Community

WunderPhotos

Upload Photos

1,962,540 photos uploaded!

WunderBlog® & News

Nearby

Air Quality

  Air Quality AQ Index Pollutant
Not available.

Snow Depth

Station Depth Elevation

Earthquake Activity

City Distance Mag. Time & Date
Minimum magnitude displayed is 2.5.

Coastal Water Temperatures

Place Temperature

Stations

Nearby Weather Stations

Station Location Temp. Windchill Dew Point Humidity Wind Precip. Elev Updated Type
                   

Watches & Warnings

Dense Fog Advisory
Issued: 8:08 PM EST Jan. 17, 2017 – National Weather Service

... Dense fog advisory in effect until 6 am EST Wednesday...

The National Weather Service in State College has issued a dense
fog advisory... which is in effect until 6 am EST Wednesday.

* Timing... this evening through early Wednesday morning.

* Impacts... greatly reduced visibilities could cause travel
problems.

Precautionary/preparedness actions...

Motorists are advised to slow down... use low beam headlights and
keep a safe following distance from the vehicle in front of you.
Consider allowing extra time to reach your destination. Go to
weather.Gov/fog for more information on fog safety.